createdAt,value
2018-12-08T00:00:34.980Z,101265.91
2018-12-08T00:03:16.184Z,101268.23
2018-12-08T00:05:56.308Z,101277.77
2018-12-08T00:08:37.598Z,101273.94
2018-12-08T00:11:18.342Z,101274.77
2018-12-08T00:13:58.956Z,101280.66
2018-12-08T00:16:39.376Z,101290.66
2018-12-08T00:19:20.346Z,101288.14
2018-12-08T00:22:01.382Z,101294.89
2018-12-08T00:24:42.589Z,101295.90
2018-12-08T00:27:23.900Z,101300.66
2018-12-08T00:30:04.671Z,101309.35
2018-12-08T00:32:45.211Z,101307.03
2018-12-08T00:35:26.197Z,101316.73
2018-12-08T00:38:06.915Z,101317.20
2018-12-08T00:40:48.142Z,101326.83
2018-12-08T00:43:28.910Z,101324.52
2018-12-08T00:46:09.831Z,101328.61
2018-12-08T00:48:51.237Z,101335.25
2018-12-08T00:51:31.923Z,101337.97
2018-12-08T00:54:12.390Z,101336.91
2018-12-08T00:56:53.510Z,101342.78
2018-12-08T00:59:33.946Z,101346.07
2018-12-08T01:02:14.510Z,101347.02
2018-12-08T01:04:55.263Z,101346.19
2018-12-08T01:07:36.347Z,101350.95
2018-12-08T01:10:17.113Z,101354.68
2018-12-08T01:12:58.104Z,101356.29
2018-12-08T01:15:38.352Z,101357.06
2018-12-08T01:18:19.558Z,101356.66
2018-12-08T01:21:00.749Z,101362.03
2018-12-08T01:23:41.691Z,101365.85
2018-12-08T01:26:22.587Z,101374.84
2018-12-08T01:29:04.156Z,101375.66
2018-12-08T01:31:45.665Z,101379.11
2018-12-08T01:34:26.071Z,101387.03
2018-12-08T01:37:06.975Z,101379.80
2018-12-08T01:39:48.465Z,101384.77
2018-12-08T01:42:29.431Z,101386.67
2018-12-08T01:45:10.784Z,101391.13
2018-12-08T01:47:52.083Z,101395.98
2018-12-08T01:50:33.064Z,101398.94
2018-12-08T01:53:13.992Z,101405.38
2018-12-08T01:55:55.710Z,101414.63
2018-12-08T01:58:36.636Z,101425.70
2018-12-08T02:01:17.716Z,101419.33
2018-12-08T02:03:58.440Z,101423.34
2018-12-08T02:06:39.196Z,101426.94
2018-12-08T02:09:20.025Z,101427.16
2018-12-08T02:12:00.910Z,101430.44
2018-12-08T02:14:41.992Z,101429.38
2018-12-08T02:17:22.355Z,101442.55
2018-12-08T02:20:02.745Z,101449.56
2018-12-08T02:22:43.865Z,101464.74
2018-12-08T02:25:24.583Z,101458.84
2018-12-08T02:28:05.789Z,101472.95
2018-12-08T02:30:46.512Z,101481.88
2018-12-08T02:33:26.633Z,101488.64
2018-12-08T02:36:07.342Z,101488.45
2018-12-08T02:38:48.060Z,101489.88
2018-12-08T02:41:29.520Z,101495.07
2018-12-08T02:44:10.278Z,101497.92
2018-12-08T02:46:51.026Z,101489.66
2018-12-08T02:49:32.113Z,101496.27
2018-12-08T02:52:13.206Z,101501.20
2018-12-08T02:54:53.799Z,101504.34
2018-12-08T02:57:34.537Z,101505.17
2018-12-08T03:00:15.705Z,101511.39
2018-12-08T03:02:56.266Z,101513.90
2018-12-08T03:05:37.267Z,101512.40
2018-12-08T03:08:18.269Z,101516.03
2018-12-08T03:10:58.867Z,101520.09
2018-12-08T03:13:39.873Z,101519.91
2018-12-08T03:16:20.307Z,101528.04
2018-12-08T03:19:01.492Z,101527.80
2018-12-08T03:21:42.424Z,101525.48
2018-12-08T03:24:23.398Z,101521.96
2018-12-08T03:27:04.354Z,101528.47
2018-12-08T03:29:45.625Z,101526.16
2018-12-08T03:32:26.349Z,101532.62
2018-12-08T03:35:07.232Z,101527.89
2018-12-08T03:37:48.306Z,101527.34
2018-12-08T03:40:28.982Z,101528.88
2018-12-08T03:43:09.859Z,101523.42
2018-12-08T03:45:50.542Z,101525.03
2018-12-08T03:48:31.625Z,101528.81
2018-12-08T03:51:12.347Z,101529.98
2018-12-08T03:53:52.827Z,101527.66
2018-12-08T03:56:33.495Z,101522.22
2018-12-08T03:59:14.163Z,101520.68
2018-12-08T04:01:54.703Z,101514.64
2018-12-08T04:04:35.468Z,101517.20
2018-12-08T04:07:16.560Z,101519.58
2018-12-08T04:09:57.345Z,101516.83
2018-12-08T04:12:38.074Z,101515.95
2018-12-08T04:15:19.062Z,101516.72
2018-12-08T04:17:59.881Z,101511.19
2018-12-08T04:20:40.988Z,101508.56
2018-12-08T04:23:21.704Z,101503.99
2018-12-08T04:26:02.671Z,101497.22
2018-12-08T04:28:42.965Z,101492.73
2018-12-08T04:31:23.305Z,101495.11
2018-12-08T04:34:04.186Z,101491.41
2018-12-08T04:36:44.581Z,101486.86
2018-12-08T04:39:25.472Z,101487.15
2018-12-08T04:42:06.272Z,101486.48
2018-12-08T04:44:46.814Z,101492.20
2018-12-08T04:47:27.223Z,101488.24
2018-12-08T04:50:07.935Z,101482.91
2018-12-08T04:52:48.716Z,101480.75
2018-12-08T04:55:29.311Z,101475.75
2018-12-08T04:58:10.137Z,101471.92
2018-12-08T05:00:50.923Z,101474.89
2018-12-08T05:03:32.208Z,101470.05
2018-12-08T05:06:12.992Z,101467.20
2018-12-08T05:08:53.655Z,101465.23
2018-12-08T05:11:34.500Z,101455.90
2018-12-08T05:14:15.467Z,101453.57
2018-12-08T05:16:56.359Z,101454.91
2018-12-08T05:19:37.257Z,101446.91
2018-12-08T05:22:17.958Z,101442.91
2018-12-08T05:24:58.625Z,101431.39
2018-12-08T05:27:39.235Z,101429.91
2018-12-08T05:30:19.751Z,101416.09
2018-12-08T05:33:00.830Z,101423.54
2018-12-08T05:35:41.420Z,101423.03
2018-12-08T05:38:22.147Z,101419.35
2018-12-08T05:41:03.151Z,101411.31
2018-12-08T05:43:44.032Z,101404.55
2018-12-08T05:46:24.791Z,101403.54
2018-12-08T05:49:05.755Z,101391.30
2018-12-08T05:51:46.428Z,101385.41
2018-12-08T05:54:27.060Z,101375.24
2018-12-08T05:57:07.656Z,101358.20
2018-12-08T05:59:48.222Z,101361.28
2018-12-08T06:02:28.598Z,101358.71
2018-12-08T06:05:09.463Z,101354.66
2018-12-08T06:07:50.682Z,101349.23
2018-12-08T06:10:30.955Z,101348.55
2018-12-08T06:13:12.105Z,101343.91
2018-12-08T06:15:52.107Z,101340.53
2018-12-08T06:18:32.700Z,101326.81
2018-12-08T06:21:13.572Z,101324.91
2018-12-08T06:23:54.430Z,101309.66
2018-12-08T06:26:35.129Z,101305.97
2018-12-08T06:29:15.866Z,101299.20
2018-12-08T06:31:56.838Z,101289.89
2018-12-08T06:34:37.150Z,101280.01
2018-12-08T06:37:17.677Z,101276.11
2018-12-08T06:39:58.670Z,101269.45
2018-12-08T06:42:39.831Z,101266.95
2018-12-08T06:45:20.705Z,101270.67
2018-12-08T06:48:01.355Z,101260.89
2018-12-08T06:50:41.951Z,101259.61
2018-12-08T06:53:23.564Z,101240.89
2018-12-08T06:56:04.583Z,101239.12
2018-12-08T06:58:45.269Z,101237.09
2018-12-08T07:01:26.436Z,101233.68
2018-12-08T07:04:07.095Z,101228.33
2018-12-08T07:06:48.351Z,101216.63
2018-12-08T07:09:29.055Z,101219.20
2018-12-08T07:12:09.950Z,101215.41
2018-12-08T07:14:50.585Z,101203.73
2018-12-08T07:17:31.074Z,101195.75
2018-12-08T07:20:11.710Z,101200.87
2018-12-08T07:22:53.145Z,101196.09
2018-12-08T07:25:34.414Z,101190.16
2018-12-08T07:28:15.045Z,101182.11
2018-12-08T07:30:56.118Z,101182.59
2018-12-08T07:33:37.086Z,101176.31
2018-12-08T07:36:17.632Z,101170.93
2018-12-08T07:38:58.532Z,101168.73
2018-12-08T07:41:39.498Z,101164.56
2018-12-08T07:44:20.355Z,101156.73
2018-12-08T07:47:01.557Z,101152.84
2018-12-08T07:49:42.234Z,101146.27
2018-12-08T07:52:23.085Z,101139.17
2018-12-08T07:55:04.682Z,101135.49
2018-12-08T07:57:45.958Z,101131.48
2018-12-08T08:00:27.020Z,101128.20
2018-12-08T08:03:07.372Z,101125.20
2018-12-08T08:05:48.372Z,101121.99
2018-12-08T08:08:29.540Z,101122.36
2018-12-08T08:11:10.201Z,101112.91
2018-12-08T08:13:51.723Z,101114.87
2018-12-08T08:16:32.991Z,101111.19
2018-12-08T08:19:13.956Z,101107.28
2018-12-08T08:21:54.583Z,101094.55
2018-12-08T08:24:35.864Z,101098.77
2018-12-08T08:27:16.665Z,101089.59
2018-12-08T08:29:57.852Z,101085.89
2018-12-08T08:32:38.428Z,101081.17
2018-12-08T08:35:19.472Z,101076.61
2018-12-08T08:38:00.375Z,101075.66
2018-12-08T08:40:41.334Z,101077.55
2018-12-08T08:43:21.999Z,101071.40
2018-12-08T08:46:02.967Z,101077.81
2018-12-08T08:48:43.855Z,101074.86
2018-12-08T08:51:24.272Z,101075.89
2018-12-08T08:54:05.105Z,101076.92
2018-12-08T08:56:46.151Z,101072.91
2018-12-08T08:59:27.737Z,101069.50
2018-12-08T09:02:08.343Z,101062.78
2018-12-08T09:10:38.835Z,116548.15
2018-12-08T09:13:19.387Z,116548.15
2018-12-08T09:24:35.002Z,116548.15
2018-12-08T09:29:56.893Z,116548.15
2018-12-08T09:32:37.791Z,116548.15
2018-12-08T09:35:18.895Z,116548.15
2018-12-08T09:38:00.137Z,116548.15
2018-12-08T09:40:41.428Z,116548.15
2018-12-08T09:43:22.912Z,116548.15
2018-12-08T09:46:03.778Z,116548.15
2018-12-08T09:48:44.815Z,116548.15
2018-12-08T09:54:06.474Z,116548.15
2018-12-08T09:56:48.031Z,116548.15
2018-12-08T09:59:29.305Z,116548.15
2018-12-08T10:02:10.577Z,116548.15
2018-12-08T10:07:32.936Z,116548.15
2018-12-08T10:10:13.781Z,116548.15
2018-12-08T10:12:54.637Z,116548.15
2018-12-08T10:15:35.812Z,116548.15
2018-12-08T10:18:16.991Z,116548.15
2018-12-08T10:20:57.941Z,116548.15
2018-12-08T10:23:38.938Z,116548.15
2018-12-08T10:26:19.699Z,116548.15
2018-12-08T10:29:00.983Z,116548.15
2018-12-08T10:31:41.848Z,116548.15
2018-12-08T10:34:22.478Z,116548.15
2018-12-08T10:37:03.521Z,116548.15
2018-12-08T10:39:44.722Z,116548.15
2018-12-08T10:42:26.054Z,116548.15
2018-12-08T10:45:06.955Z,116548.15
2018-12-08T10:47:47.798Z,116548.15
2018-12-08T10:50:28.874Z,116548.15
2018-12-08T10:53:10.140Z,116548.15
2018-12-08T10:55:51.371Z,116548.15
2018-12-08T10:58:32.304Z,116548.15
2018-12-08T11:01:13.695Z,116548.15
2018-12-08T11:03:54.586Z,116548.15
2018-12-08T11:06:35.631Z,116548.15
2018-12-08T11:09:17.177Z,116548.15
2018-12-08T11:11:58.431Z,116548.15
2018-12-08T11:14:39.390Z,116548.15
2018-12-08T11:17:20.493Z,116548.15
2018-12-08T11:20:01.864Z,116548.15
2018-12-08T11:25:24.311Z,116548.15
2018-12-08T11:28:05.884Z,116548.15
2018-12-08T11:30:47.034Z,116548.15
2018-12-08T11:33:28.361Z,116548.15
2018-12-08T11:36:09.627Z,116548.15
2018-12-08T11:38:50.788Z,116548.15
2018-12-08T11:44:12.183Z,116548.15
2018-12-08T11:46:53.180Z,116548.15
2018-12-08T11:49:34.499Z,116548.15
2018-12-08T11:52:15.501Z,116548.15
2018-12-08T11:54:56.741Z,116548.15
2018-12-08T11:57:37.717Z,116548.15
2018-12-08T12:00:18.898Z,116548.15
2018-12-08T12:02:59.877Z,116548.15
2018-12-08T12:05:40.842Z,116548.15
2018-12-08T12:08:21.581Z,116548.15
2018-12-08T12:11:02.077Z,116548.15
2018-12-08T12:13:42.335Z,116548.15
2018-12-08T12:16:23.100Z,116548.15
2018-12-08T12:19:06.496Z,116548.15
2018-12-08T12:21:49.952Z,116548.15
2018-12-08T12:24:30.715Z,116548.15
2018-12-08T12:29:51.738Z,116548.15
2018-12-08T12:32:32.192Z,116548.15
2018-12-08T12:35:12.853Z,116548.15
2018-12-08T12:37:53.829Z,116548.15
2018-12-08T12:40:34.264Z,116548.15
2018-12-08T12:43:14.981Z,116548.15
2018-12-08T12:45:55.584Z,116548.15
2018-12-08T12:48:36.303Z,116548.15
2018-12-08T12:51:16.964Z,116548.15
2018-12-08T12:53:57.560Z,116548.15
2018-12-08T12:56:38.316Z,116548.15
2018-12-08T12:59:18.875Z,116548.15
2018-12-08T13:02:02.487Z,116548.15
2018-12-08T13:04:43.073Z,116548.15
2018-12-08T13:07:30.106Z,116548.15
2018-12-08T13:10:13.236Z,116548.15
2018-12-08T13:12:53.861Z,116548.15
2018-12-08T13:15:44.805Z,116548.15
2018-12-08T13:18:29.699Z,116548.15
2018-12-08T13:21:10.705Z,116548.15
2018-12-08T13:23:52.120Z,116548.15
2018-12-08T13:26:35.836Z,116548.15
2018-12-08T13:29:19.055Z,116548.15
2018-12-08T13:32:05.099Z,116548.15
2018-12-08T13:34:49.277Z,116548.15
2018-12-08T13:37:31.657Z,116548.15
2018-12-08T13:40:13.240Z,116548.15
2018-12-08T13:42:56.013Z,116548.15
2018-12-08T13:45:38.359Z,116548.15
2018-12-08T13:48:20.818Z,116548.15
2018-12-08T13:51:03.083Z,116548.15
2018-12-08T13:53:46.816Z,116548.15
2018-12-08T13:56:28.280Z,116548.15
2018-12-08T13:59:13.230Z,116548.15
2018-12-08T14:01:58.194Z,116548.15
2018-12-08T14:04:42.503Z,116548.15
2018-12-08T14:07:24.342Z,116548.15
2018-12-08T14:10:09.803Z,116548.15
2018-12-08T14:12:52.474Z,116548.15
2018-12-08T14:15:36.474Z,116548.15
2018-12-08T14:18:21.150Z,116548.15
2018-12-08T14:21:03.700Z,116548.15
2018-12-08T14:23:45.660Z,116548.15
2018-12-08T14:26:27.358Z,116548.15
2018-12-08T14:34:36.279Z,116548.15
2018-12-08T14:42:45.143Z,116548.15
2018-12-08T14:45:28.815Z,116548.15
2018-12-08T14:48:09.619Z,116548.15
2018-12-08T14:50:51.461Z,116548.15
2018-12-08T14:53:32.543Z,116548.15
2018-12-08T15:04:26.060Z,116548.15
2018-12-08T15:12:34.300Z,116548.15
2018-12-08T15:45:16.588Z,116548.15
2018-12-08T15:47:56.667Z,116548.15
2018-12-08T15:50:39.702Z,116548.15
2018-12-08T16:26:05.645Z,116548.15
2018-12-08T16:28:49.038Z,116548.15
2018-12-08T16:34:13.264Z,116548.15
2018-12-08T16:36:55.017Z,116548.15
2018-12-08T16:45:04.357Z,116548.15
2018-12-08T17:12:19.794Z,116548.15
2018-12-08T17:28:39.375Z,116548.15
2018-12-08T17:34:03.337Z,116548.15
2018-12-08T17:36:44.194Z,116548.15
2018-12-08T17:39:26.101Z,116548.15
2018-12-08T17:42:06.745Z,116548.15
2018-12-08T17:44:49.273Z,116548.15
2018-12-08T17:58:25.581Z,116548.15
2018-12-08T18:01:07.260Z,116548.15
2018-12-08T18:03:47.750Z,116548.15
2018-12-08T18:06:28.912Z,116548.15
2018-12-08T18:09:09.496Z,116548.15
2018-12-08T18:11:51.378Z,116548.15
2018-12-08T18:17:16.903Z,116548.15
2018-12-08T18:19:57.338Z,116548.15
2018-12-08T18:25:22.270Z,116548.15
2018-12-08T18:28:03.264Z,116548.15
2018-12-08T18:30:44.434Z,116548.15
2018-12-08T18:33:26.144Z,116548.15
2018-12-08T18:36:08.115Z,116548.15
2018-12-08T18:44:17.434Z,116548.15
2018-12-08T18:46:58.375Z,116548.15
2018-12-08T18:49:39.237Z,116548.15
2018-12-08T18:52:20.259Z,116548.15
2018-12-08T18:55:00.987Z,116548.15
2018-12-08T18:57:42.720Z,116548.15
2018-12-08T19:03:05.352Z,116548.15
2018-12-08T19:05:46.635Z,116548.15
2018-12-08T19:08:27.869Z,116548.15
2018-12-08T19:11:09.481Z,116548.15
2018-12-08T19:13:50.188Z,116548.15
2018-12-08T19:16:30.875Z,116548.15
2018-12-08T19:19:11.639Z,116548.15
2018-12-08T19:21:52.663Z,116548.15
2018-12-08T19:24:33.625Z,116548.15
2018-12-08T19:27:14.582Z,116548.15
2018-12-08T19:29:55.848Z,116548.15
2018-12-08T19:32:37.135Z,116548.15
2018-12-08T19:35:17.701Z,116548.15
2018-12-08T19:37:58.808Z,116548.15
2018-12-08T19:40:40.103Z,116548.15
2018-12-08T19:43:21.298Z,116548.15
2018-12-08T19:46:02.347Z,116548.15
2018-12-08T19:48:43.314Z,116548.15
2018-12-08T19:51:24.823Z,116548.15
2018-12-08T19:54:05.461Z,116548.15
2018-12-08T19:56:46.757Z,116548.15
2018-12-08T19:59:27.708Z,116548.15
2018-12-08T20:02:08.995Z,116548.15
2018-12-08T20:04:49.675Z,116548.15
2018-12-08T20:07:30.343Z,116548.15
2018-12-08T20:10:11.540Z,116548.15
2018-12-08T20:12:52.398Z,116548.15
2018-12-08T20:15:33.474Z,116548.15
2018-12-08T20:18:14.589Z,116548.15
2018-12-08T20:20:55.516Z,116548.15
2018-12-08T20:23:37.027Z,116548.15
2018-12-08T20:26:17.933Z,116548.15
2018-12-08T20:29:01.465Z,116548.15
2018-12-08T20:31:42.274Z,116548.15
2018-12-08T20:34:23.720Z,116548.15
2018-12-08T20:37:04.658Z,116548.15
2018-12-08T20:39:45.544Z,116548.15
2018-12-08T20:42:26.387Z,116548.15
2018-12-08T20:45:07.357Z,116548.15
2018-12-08T20:47:48.811Z,116548.15
2018-12-08T20:50:29.799Z,116548.15
2018-12-08T20:53:10.641Z,116548.15
2018-12-08T20:55:52.064Z,116548.15
2018-12-08T20:58:33.263Z,116548.15
2018-12-08T21:01:13.945Z,116548.15
2018-12-08T21:03:54.828Z,116548.15
2018-12-08T21:06:35.875Z,116548.15
2018-12-08T21:09:17.150Z,116548.15
2018-12-08T21:11:58.111Z,116548.15
2018-12-08T21:14:41.081Z,116548.15
2018-12-08T21:17:22.258Z,116548.15
2018-12-08T21:20:03.276Z,116548.15
2018-12-08T21:22:43.948Z,116548.15
2018-12-08T21:25:25.141Z,116548.15
2018-12-08T21:28:06.092Z,116548.15
2018-12-08T21:30:47.093Z,116548.15
2018-12-08T21:33:28.364Z,116548.15
2018-12-08T21:36:09.638Z,116548.15
2018-12-08T21:38:50.395Z,116548.15
2018-12-08T21:41:31.304Z,116548.15
2018-12-08T21:44:12.035Z,116548.15
2018-12-08T21:46:53.802Z,116548.15
2018-12-08T21:49:34.892Z,116548.15
2018-12-08T21:52:16.986Z,116548.15
2018-12-08T21:54:57.948Z,116548.15
2018-12-08T21:57:39.232Z,116548.15
2018-12-08T22:00:20.241Z,116548.15
2018-12-08T22:03:01.792Z,116548.15
2018-12-08T22:05:43.072Z,116548.15
2018-12-08T22:08:24.193Z,116548.15
2018-12-08T22:11:05.987Z,116548.15
2018-12-08T22:13:47.263Z,116548.15
2018-12-08T22:16:28.180Z,116548.15
2018-12-08T22:19:09.777Z,116548.15
2018-12-08T22:21:51.102Z,116548.15
2018-12-08T22:24:32.279Z,116548.15
2018-12-08T22:27:13.615Z,116548.15
2018-12-08T22:29:55.225Z,116548.15
2018-12-08T22:32:36.512Z,116548.15
2018-12-08T22:35:17.181Z,116548.15
2018-12-08T22:37:57.776Z,116548.15
2018-12-08T22:40:39.372Z,116548.15
2018-12-08T22:43:20.625Z,116548.15
2018-12-08T22:46:01.506Z,116548.15
2018-12-08T22:48:42.987Z,116548.15
2018-12-08T22:51:24.186Z,116548.15
2018-12-08T22:54:05.330Z,116548.15
2018-12-08T22:56:46.202Z,116548.15
2018-12-08T22:59:26.838Z,116548.15
2018-12-08T23:02:08.265Z,116548.15
2018-12-08T23:04:49.629Z,116548.15
2018-12-08T23:07:30.582Z,116548.15
2018-12-08T23:10:11.893Z,116548.15
2018-12-08T23:12:53.472Z,116548.15
2018-12-08T23:15:34.462Z,116548.15
2018-12-08T23:18:15.867Z,116548.15
2018-12-08T23:23:37.617Z,116548.15
2018-12-08T23:26:18.756Z,116548.15
2018-12-08T23:28:59.858Z,116548.15
2018-12-08T23:31:40.810Z,116548.15
2018-12-08T23:34:21.586Z,116548.15
2018-12-08T23:37:02.746Z,116548.15
2018-12-08T23:46:39.407Z,116548.15
2018-12-08T23:49:20.377Z,116548.15
2018-12-08T23:52:01.604Z,116548.15
2018-12-08T23:54:42.094Z,116548.15
2018-12-08T23:57:22.877Z,116548.15
